sensor_id;sensor_type;location;lat;lon;timestamp;temperature;humidity
80274;DHT22;69576;51.902;-8.462;2023-05-14T00:02:06;17.00;67.00
80274;DHT22;69576;51.902;-8.462;2023-05-14T00:04:35;17.00;66.90
80274;DHT22;69576;51.902;-8.462;2023-05-14T00:07:00;17.00;67.20
80274;DHT22;69576;51.902;-8.462;2023-05-14T00:09:29;17.00;67.20
80274;DHT22;69576;51.902;-8.462;2023-05-14T00:11:55;16.90;67.20
80274;DHT22;69576;51.902;-8.462;2023-05-14T00:14:23;16.90;67.10
80274;DHT22;69576;51.902;-8.462;2023-05-14T00:16:49;16.90;66.90
80274;DHT22;69576;51.902;-8.462;2023-05-14T00:19:15;16.90;66.90
80274;DHT22;69576;51.902;-8.462;2023-05-14T00:21:40;16.80;67.10
80274;DHT22;69576;51.902;-8.462;2023-05-14T00:24:07;16.90;67.00
80274;DHT22;69576;51.902;-8.462;2023-05-14T00:26:37;16.80;67.40
80274;DHT22;69576;51.902;-8.462;2023-05-14T00:29:05;16.80;67.00
80274;DHT22;69576;51.902;-8.462;2023-05-14T00:31:31;16.80;66.90
80274;DHT22;69576;51.902;-8.462;2023-05-14T00:33:57;16.80;66.90
80274;DHT22;69576;51.902;-8.462;2023-05-14T00:36:25;16.80;66.70
80274;DHT22;69576;51.902;-8.462;2023-05-14T00:38:50;16.70;67.20
80274;DHT22;69576;51.902;-8.462;2023-05-14T00:41:16;16.70;67.00
80274;DHT22;69576;51.902;-8.462;2023-05-14T00:43:44;16.70;66.70
80274;DHT22;69576;51.902;-8.462;2023-05-14T00:46:10;16.70;66.70
80274;DHT22;69576;51.902;-8.462;2023-05-14T00:48:39;16.60;66.90
80274;DHT22;69576;51.902;-8.462;2023-05-14T00:51:05;16.60;66.90
80274;DHT22;69576;51.902;-8.462;2023-05-14T00:53:39;16.60;67.10
80274;DHT22;69576;51.902;-8.462;2023-05-14T00:56:05;16.60;67.00
80274;DHT22;69576;51.902;-8.462;2023-05-14T00:58:32;16.60;67.00
80274;DHT22;69576;51.902;-8.462;2023-05-14T01:00:58;16.50;67.00
80274;DHT22;69576;51.902;-8.462;2023-05-14T01:03:24;16.50;66.90
80274;DHT22;69576;51.902;-8.462;2023-05-14T01:09:07;16.50;66.90
80274;DHT22;69576;51.902;-8.462;2023-05-14T01:12:02;16.50;66.60
80274;DHT22;69576;51.902;-8.462;2023-05-14T01:14:55;16.40;67.60
80274;DHT22;69576;51.902;-8.462;2023-05-14T01:17:27;16.40;67.40
80274;DHT22;69576;51.902;-8.462;2023-05-14T01:19:57;16.40;67.50
80274;DHT22;69576;51.902;-8.462;2023-05-14T01:22:23;16.40;68.00
80274;DHT22;69576;51.902;-8.462;2023-05-14T01:24:49;16.40;67.50
80274;DHT22;69576;51.902;-8.462;2023-05-14T01:27:34;16.40;67.40
80274;DHT22;69576;51.902;-8.462;2023-05-14T01:32:34;16.40;67.80
80274;DHT22;69576;51.902;-8.462;2023-05-14T01:35:01;16.30;67.60
80274;DHT22;69576;51.902;-8.462;2023-05-14T01:37:29;16.40;68.10
80274;DHT22;69576;51.902;-8.462;2023-05-14T01:39:55;16.30;67.70
80274;DHT22;69576;51.902;-8.462;2023-05-14T01:42:22;16.30;67.50
80274;DHT22;69576;51.902;-8.462;2023-05-14T01:44:50;16.30;67.40
80274;DHT22;69576;51.902;-8.462;2023-05-14T01:47:16;16.30;67.90
80274;DHT22;69576;51.902;-8.462;2023-05-14T01:49:42;16.30;67.70
80274;DHT22;69576;51.902;-8.462;2023-05-14T01:52:07;16.20;67.70
80274;DHT22;69576;51.902;-8.462;2023-05-14T01:54:33;16.20;67.60
80274;DHT22;69576;51.902;-8.462;2023-05-14T01:56:59;16.20;67.80
80274;DHT22;69576;51.902;-8.462;2023-05-14T01:59:25;16.20;67.80
80274;DHT22;69576;51.902;-8.462;2023-05-14T02:01:50;16.20;67.70
80274;DHT22;69576;51.902;-8.462;2023-05-14T02:04:18;16.20;67.60
80274;DHT22;69576;51.902;-8.462;2023-05-14T02:06:45;16.20;67.90
80274;DHT22;69576;51.902;-8.462;2023-05-14T02:09:13;16.20;68.00
80274;DHT22;69576;51.902;-8.462;2023-05-14T02:11:39;16.20;68.00
80274;DHT22;69576;51.902;-8.462;2023-05-14T02:14:07;16.20;68.00
80274;DHT22;69576;51.902;-8.462;2023-05-14T02:16:35;16.20;68.10
80274;DHT22;69576;51.902;-8.462;2023-05-14T02:19:03;16.20;67.80
80274;DHT22;69576;51.902;-8.462;2023-05-14T02:21:31;16.20;67.70
80274;DHT22;69576;51.902;-8.462;2023-05-14T02:23:57;16.20;67.50
80274;DHT22;69576;51.902;-8.462;2023-05-14T02:26:22;16.20;67.50
80274;DHT22;69576;51.902;-8.462;2023-05-14T02:28:48;16.20;67.50
80274;DHT22;69576;51.902;-8.462;2023-05-14T02:31:14;16.20;67.60
80274;DHT22;69576;51.902;-8.462;2023-05-14T02:33:44;16.20;67.50
80274;DHT22;69576;51.902;-8.462;2023-05-14T02:36:12;16.20;67.70
80274;DHT22;69576;51.902;-8.462;2023-05-14T02:38:38;16.10;67.70
80274;DHT22;69576;51.902;-8.462;2023-05-14T02:41:04;16.10;67.70
80274;DHT22;69576;51.902;-8.462;2023-05-14T02:43:29;16.10;67.90
80274;DHT22;69576;51.902;-8.462;2023-05-14T02:45:55;16.10;67.90
80274;DHT22;69576;51.902;-8.462;2023-05-14T02:48:23;16.10;67.80
80274;DHT22;69576;51.902;-8.462;2023-05-14T02:50:52;16.10;67.90
80274;DHT22;69576;51.902;-8.462;2023-05-14T02:53:17;16.10;67.90
80274;DHT22;69576;51.902;-8.462;2023-05-14T02:55:43;16.10;68.20
80274;DHT22;69576;51.902;-8.462;2023-05-14T02:58:09;16.10;68.30
80274;DHT22;69576;51.902;-8.462;2023-05-14T03:00:37;16.10;68.30
80274;DHT22;69576;51.902;-8.462;2023-05-14T03:03:03;16.10;68.20
80274;DHT22;69576;51.902;-8.462;2023-05-14T03:05:28;16.10;67.90
80274;DHT22;69576;51.902;-8.462;2023-05-14T03:08:00;16.10;68.00
80274;DHT22;69576;51.902;-8.462;2023-05-14T03:10:25;16.10;68.10
80274;DHT22;69576;51.902;-8.462;2023-05-14T03:12:51;16.10;68.20
80274;DHT22;69576;51.902;-8.462;2023-05-14T03:15:17;16.10;68.30
80274;DHT22;69576;51.902;-8.462;2023-05-14T03:17:43;16.10;68.20
80274;DHT22;69576;51.902;-8.462;2023-05-14T03:20:11;16.10;68.10
80274;DHT22;69576;51.902;-8.462;2023-05-14T03:22:37;16.10;68.10
80274;DHT22;69576;51.902;-8.462;2023-05-14T03:25:05;16.10;68.10
80274;DHT22;69576;51.902;-8.462;2023-05-14T03:27:31;16.10;68.00
80274;DHT22;69576;51.902;-8.462;2023-05-14T03:30:02;16.10;68.10
80274;DHT22;69576;51.902;-8.462;2023-05-14T03:32:30;16.10;68.20
80274;DHT22;69576;51.902;-8.462;2023-05-14T03:34:58;16.10;68.30
80274;DHT22;69576;51.902;-8.462;2023-05-14T03:37:24;16.10;68.10
80274;DHT22;69576;51.902;-8.462;2023-05-14T03:39:52;16.10;68.60
80274;DHT22;69576;51.902;-8.462;2023-05-14T03:42:18;16.10;68.60
80274;DHT22;69576;51.902;-8.462;2023-05-14T03:44:44;16.10;68.50
80274;DHT22;69576;51.902;-8.462;2023-05-14T03:47:12;16.10;68.20
80274;DHT22;69576;51.902;-8.462;2023-05-14T03:49:40;16.10;68.40
80274;DHT22;69576;51.902;-8.462;2023-05-14T03:52:06;16.10;68.60
80274;DHT22;69576;51.902;-8.462;2023-05-14T03:54:34;16.10;68.50
80274;DHT22;69576;51.902;-8.462;2023-05-14T03:57:00;16.10;68.40
80274;DHT22;69576;51.902;-8.462;2023-05-14T03:59:26;16.10;68.30
80274;DHT22;69576;51.902;-8.462;2023-05-14T04:01:52;16.10;68.40
80274;DHT22;69576;51.902;-8.462;2023-05-14T04:04:20;16.10;68.40
80274;DHT22;69576;51.902;-8.462;2023-05-14T04:06:46;16.10;68.80
80274;DHT22;69576;51.902;-8.462;2023-05-14T04:09:11;16.10;68.80
80274;DHT22;69576;51.902;-8.462;2023-05-14T04:11:39;16.10;68.80
80274;DHT22;69576;51.902;-8.462;2023-05-14T04:14:07;16.10;68.80
80274;DHT22;69576;51.902;-8.462;2023-05-14T04:16:33;16.10;68.70
80274;DHT22;69576;51.902;-8.462;2023-05-14T04:19:00;16.10;68.80
80274;DHT22;69576;51.902;-8.462;2023-05-14T04:21:29;16.10;68.70
80274;DHT22;69576;51.902;-8.462;2023-05-14T04:23:57;16.10;68.60
80274;DHT22;69576;51.902;-8.462;2023-05-14T04:26:27;16.10;68.50
80274;DHT22;69576;51.902;-8.462;2023-05-14T04:28:53;16.10;68.50
80274;DHT22;69576;51.902;-8.462;2023-05-14T04:31:19;16.10;68.50
80274;DHT22;69576;51.902;-8.462;2023-05-14T04:33:45;16.10;68.50
80274;DHT22;69576;51.902;-8.462;2023-05-14T04:36:11;16.10;68.30
80274;DHT22;69576;51.902;-8.462;2023-05-14T04:38:37;16.10;68.50
80274;DHT22;69576;51.902;-8.462;2023-05-14T04:41:02;16.10;68.50
80274;DHT22;69576;51.902;-8.462;2023-05-14T04:43:31;16.10;68.40
80274;DHT22;69576;51.902;-8.462;2023-05-14T04:45:57;16.10;68.50
80274;DHT22;69576;51.902;-8.462;2023-05-14T04:48:23;16.10;68.60
80274;DHT22;69576;51.902;-8.462;2023-05-14T04:50:49;16.10;68.60
80274;DHT22;69576;51.902;-8.462;2023-05-14T04:53:15;16.10;68.60
80274;DHT22;69576;51.902;-8.462;2023-05-14T04:55:43;16.10;68.50
80274;DHT22;69576;51.902;-8.462;2023-05-14T04:58:13;16.10;68.50
80274;DHT22;69576;51.902;-8.462;2023-05-14T05:00:39;16.10;68.60
80274;DHT22;69576;51.902;-8.462;2023-05-14T05:03:05;16.10;68.70
80274;DHT22;69576;51.902;-8.462;2023-05-14T05:05:31;16.10;68.80
80274;DHT22;69576;51.902;-8.462;2023-05-14T05:07:56;16.10;68.80
80274;DHT22;69576;51.902;-8.462;2023-05-14T05:10:22;16.10;68.60
80274;DHT22;69576;51.902;-8.462;2023-05-14T05:12:48;16.00;68.70
80274;DHT22;69576;51.902;-8.462;2023-05-14T05:15:14;16.00;68.70
80274;DHT22;69576;51.902;-8.462;2023-05-14T05:17:40;16.00;68.80
80274;DHT22;69576;51.902;-8.462;2023-05-14T05:20:08;16.10;68.90
80274;DHT22;69576;51.902;-8.462;2023-05-14T05:22:35;16.10;68.70
80274;DHT22;69576;51.902;-8.462;2023-05-14T05:25:03;16.10;68.70
80274;DHT22;69576;51.902;-8.462;2023-05-14T05:27:35;16.00;68.60
80274;DHT22;69576;51.902;-8.462;2023-05-14T05:30:01;16.10;68.70
80274;DHT22;69576;51.902;-8.462;2023-05-14T05:32:31;16.10;68.70
80274;DHT22;69576;51.902;-8.462;2023-05-14T05:34:59;16.10;68.70
80274;DHT22;69576;51.902;-8.462;2023-05-14T05:37:25;16.10;68.70
80274;DHT22;69576;51.902;-8.462;2023-05-14T05:39:51;16.00;68.80
80274;DHT22;69576;51.902;-8.462;2023-05-14T05:42:20;16.00;68.80
80274;DHT22;69576;51.902;-8.462;2023-05-14T05:44:47;16.00;68.80
80274;DHT22;69576;51.902;-8.462;2023-05-14T05:47:12;16.00;68.80
80274;DHT22;69576;51.902;-8.462;2023-05-14T05:49:38;16.10;68.90
80274;DHT22;69576;51.902;-8.462;2023-05-14T05:52:04;16.10;69.00
80274;DHT22;69576;51.902;-8.462;2023-05-14T05:54:33;16.10;68.80
80274;DHT22;69576;51.902;-8.462;2023-05-14T05:56:59;16.10;68.70
80274;DHT22;69576;51.902;-8.462;2023-05-14T05:59:27;16.10;68.70
80274;DHT22;69576;51.902;-8.462;2023-05-14T06:01:53;16.10;68.80
80274;DHT22;69576;51.902;-8.462;2023-05-14T06:04:19;16.00;68.80
80274;DHT22;69576;51.902;-8.462;2023-05-14T06:06:45;16.10;68.90
80274;DHT22;69576;51.902;-8.462;2023-05-14T06:09:10;16.10;68.90
80274;DHT22;69576;51.902;-8.462;2023-05-14T06:11:41;16.10;69.00
80274;DHT22;69576;51.902;-8.462;2023-05-14T06:14:09;16.10;68.90
80274;DHT22;69576;51.902;-8.462;2023-05-14T06:16:37;16.10;69.10
80274;DHT22;69576;51.902;-8.462;2023-05-14T06:19:07;16.10;69.00
80274;DHT22;69576;51.902;-8.462;2023-05-14T06:21:36;16.10;69.30
80274;DHT22;69576;51.902;-8.462;2023-05-14T06:24:02;16.10;69.10
80274;DHT22;69576;51.902;-8.462;2023-05-14T06:26:28;16.10;69.00
80274;DHT22;69576;51.902;-8.462;2023-05-14T06:28:56;16.10;69.00
80274;DHT22;69576;51.902;-8.462;2023-05-14T06:31:25;16.10;69.10
80274;DHT22;69576;51.902;-8.462;2023-05-14T06:33:51;16.20;69.30
80274;DHT22;69576;51.902;-8.462;2023-05-14T06:36:17;16.20;69.40
80274;DHT22;69576;51.902;-8.462;2023-05-14T06:38:42;16.20;69.10
80274;DHT22;69576;51.902;-8.462;2023-05-14T06:41:08;16.20;69.10
80274;DHT22;69576;51.902;-8.462;2023-05-14T06:43:34;16.20;69.10
80274;DHT22;69576;51.902;-8.462;2023-05-14T06:46:02;16.20;69.10
80274;DHT22;69576;51.902;-8.462;2023-05-14T06:48:28;16.30;69.20
80274;DHT22;69576;51.902;-8.462;2023-05-14T06:50:57;16.40;69.00
80274;DHT22;69576;51.902;-8.462;2023-05-14T06:53:27;16.40;69.10
80274;DHT22;69576;51.902;-8.462;2023-05-14T06:55:53;16.40;69.20
80274;DHT22;69576;51.902;-8.462;2023-05-14T06:58:19;16.40;69.20
80274;DHT22;69576;51.902;-8.462;2023-05-14T07:00:45;16.40;69.20
80274;DHT22;69576;51.902;-8.462;2023-05-14T07:03:13;16.40;69.20
80274;DHT22;69576;51.902;-8.462;2023-05-14T07:05:39;16.50;69.00
80274;DHT22;69576;51.902;-8.462;2023-05-14T07:08:08;16.50;68.90
80274;DHT22;69576;51.902;-8.462;2023-05-14T07:10:36;16.50;69.10
80274;DHT22;69576;51.902;-8.462;2023-05-14T07:13:03;16.50;69.00
80274;DHT22;69576;51.902;-8.462;2023-05-14T07:15:32;16.50;69.30
80274;DHT22;69576;51.902;-8.462;2023-05-14T07:17:57;16.50;69.10
80274;DHT22;69576;51.902;-8.462;2023-05-14T07:20:23;16.60;69.10
80274;DHT22;69576;51.902;-8.462;2023-05-14T07:22:51;16.60;68.90
80274;DHT22;69576;51.902;-8.462;2023-05-14T07:25:17;16.60;68.90
80274;DHT22;69576;51.902;-8.462;2023-05-14T07:27:43;16.50;68.90
80274;DHT22;69576;51.902;-8.462;2023-05-14T07:30:09;16.60;68.70
80274;DHT22;69576;51.902;-8.462;2023-05-14T07:32:37;16.60;69.10
80274;DHT22;69576;51.902;-8.462;2023-05-14T07:35:05;16.60;68.90
80274;DHT22;69576;51.902;-8.462;2023-05-14T07:37:31;16.60;69.00
80274;DHT22;69576;51.902;-8.462;2023-05-14T07:39:57;16.60;69.00
80274;DHT22;69576;51.902;-8.462;2023-05-14T07:42:23;16.60;69.10
80274;DHT22;69576;51.902;-8.462;2023-05-14T07:44:51;16.60;69.00
80274;DHT22;69576;51.902;-8.462;2023-05-14T07:47:16;16.60;69.00
80274;DHT22;69576;51.902;-8.462;2023-05-14T07:49:44;16.60;69.00
80274;DHT22;69576;51.902;-8.462;2023-05-14T07:52:10;16.60;69.10
80274;DHT22;69576;51.902;-8.462;2023-05-14T07:54:38;16.60;69.10
80274;DHT22;69576;51.902;-8.462;2023-05-14T07:57:04;16.70;69.00
80274;DHT22;69576;51.902;-8.462;2023-05-14T07:59:30;16.70;69.20
80274;DHT22;69576;51.902;-8.462;2023-05-14T08:01:56;16.70;69.10
80274;DHT22;69576;51.902;-8.462;2023-05-14T08:04:22;16.70;69.10
80274;DHT22;69576;51.902;-8.462;2023-05-14T08:06:50;16.70;69.00
80274;DHT22;69576;51.902;-8.462;2023-05-14T08:09:16;16.70;69.00
80274;DHT22;69576;51.902;-8.462;2023-05-14T08:11:42;16.70;69.00
80274;DHT22;69576;51.902;-8.462;2023-05-14T08:14:10;16.80;68.90
80274;DHT22;69576;51.902;-8.462;2023-05-14T08:16:40;16.80;69.00
80274;DHT22;69576;51.902;-8.462;2023-05-14T08:19:06;16.80;69.00
80274;DHT22;69576;51.902;-8.462;2023-05-14T08:21:34;16.80;69.00
80274;DHT22;69576;51.902;-8.462;2023-05-14T08:24:00;16.80;69.00
80274;DHT22;69576;51.902;-8.462;2023-05-14T08:26:26;16.90;69.00
80274;DHT22;69576;51.902;-8.462;2023-05-14T08:28:52;16.90;69.00
80274;DHT22;69576;51.902;-8.462;2023-05-14T08:31:19;16.90;69.10
80274;DHT22;69576;51.902;-8.462;2023-05-14T08:33:47;17.00;69.20
80274;DHT22;69576;51.902;-8.462;2023-05-14T08:36:13;17.00;69.70
80274;DHT22;69576;51.902;-8.462;2023-05-14T08:38:41;17.00;69.60
80274;DHT22;69576;51.902;-8.462;2023-05-14T08:41:07;17.10;69.20
80274;DHT22;69576;51.902;-8.462;2023-05-14T08:46:27;17.20;69.30
80274;DHT22;69576;51.902;-8.462;2023-05-14T08:49:01;17.20;69.10
80274;DHT22;69576;51.902;-8.462;2023-05-14T08:51:31;17.20;68.90
80274;DHT22;69576;51.902;-8.462;2023-05-14T08:53:58;17.20;68.90
80274;DHT22;69576;51.902;-8.462;2023-05-14T08:56:27;17.20;69.00
80274;DHT22;69576;51.902;-8.462;2023-05-14T08:58:53;17.20;68.90
80274;DHT22;69576;51.902;-8.462;2023-05-14T09:01:19;17.20;69.00
80274;DHT22;69576;51.902;-8.462;2023-05-14T09:03:46;17.20;69.10
80274;DHT22;69576;51.902;-8.462;2023-05-14T09:06:13;17.20;69.60
80274;DHT22;69576;51.902;-8.462;2023-05-14T09:08:39;17.20;69.10
80274;DHT22;69576;51.902;-8.462;2023-05-14T09:11:04;17.30;69.00
80274;DHT22;69576;51.902;-8.462;2023-05-14T09:13:31;17.30;68.30
80274;DHT22;69576;51.902;-8.462;2023-05-14T09:15:57;17.30;68.20
80274;DHT22;69576;51.902;-8.462;2023-05-14T09:18:24;17.30;67.90
80274;DHT22;69576;51.902;-8.462;2023-05-14T09:20:52;17.30;67.60
80274;DHT22;69576;51.902;-8.462;2023-05-14T09:23:18;17.30;67.40
80274;DHT22;69576;51.902;-8.462;2023-05-14T09:25:46;17.30;67.30
80274;DHT22;69576;51.902;-8.462;2023-05-14T09:28:16;17.40;67.20
80274;DHT22;69576;51.902;-8.462;2023-05-14T09:30:49;17.40;67.00
80274;DHT22;69576;51.902;-8.462;2023-05-14T09:33:28;17.40;67.30
80274;DHT22;69576;51.902;-8.462;2023-05-14T09:36:00;17.40;66.90
80274;DHT22;69576;51.902;-8.462;2023-05-14T09:38:30;17.40;66.70
80274;DHT22;69576;51.902;-8.462;2023-05-14T09:40:58;17.40;66.40
80274;DHT22;69576;51.902;-8.462;2023-05-14T09:43:27;17.40;66.20
80274;DHT22;69576;51.902;-8.462;2023-05-14T09:45:55;17.30;65.90
80274;DHT22;69576;51.902;-8.462;2023-05-14T09:48:25;17.30;65.90
80274;DHT22;69576;51.902;-8.462;2023-05-14T09:50:53;17.40;65.60
80274;DHT22;69576;51.902;-8.462;2023-05-14T09:53:19;17.50;65.50
80274;DHT22;69576;51.902;-8.462;2023-05-14T09:55:49;17.60;65.50
80274;DHT22;69576;51.902;-8.462;2023-05-14T09:58:15;17.60;65.10
80274;DHT22;69576;51.902;-8.462;2023-05-14T10:00:45;17.60;65.00
80274;DHT22;69576;51.902;-8.462;2023-05-14T10:03:16;17.60;64.70
80274;DHT22;69576;51.902;-8.462;2023-05-14T10:05:43;17.60;64.50
80274;DHT22;69576;51.902;-8.462;2023-05-14T10:08:16;17.60;64.50
80274;DHT22;69576;51.902;-8.462;2023-05-14T10:10:48;17.50;64.30
80274;DHT22;69576;51.902;-8.462;2023-05-14T10:13:23;17.50;64.20
80274;DHT22;69576;51.902;-8.462;2023-05-14T10:18:42;17.50;64.20
80274;DHT22;69576;51.902;-8.462;2023-05-14T10:21:14;17.50;64.10
80274;DHT22;69576;51.902;-8.462;2023-05-14T10:23:41;17.40;64.10
80274;DHT22;69576;51.902;-8.462;2023-05-14T10:26:10;17.40;64.10
80274;DHT22;69576;51.902;-8.462;2023-05-14T10:28:37;17.40;64.10
80274;DHT22;69576;51.902;-8.462;2023-05-14T10:31:02;17.40;63.80
80274;DHT22;69576;51.902;-8.462;2023-05-14T10:33:28;17.30;63.60
80274;DHT22;69576;51.902;-8.462;2023-05-14T10:36:00;17.20;63.70
80274;DHT22;69576;51.902;-8.462;2023-05-14T10:38:34;17.20;63.70
80274;DHT22;69576;51.902;-8.462;2023-05-14T10:41:04;17.20;63.60
80274;DHT22;69576;51.902;-8.462;2023-05-14T10:43:33;17.20;63.70
80274;DHT22;69576;51.902;-8.462;2023-05-14T10:46:01;17.20;63.70
80274;DHT22;69576;51.902;-8.462;2023-05-14T10:48:27;17.20;63.60
80274;DHT22;69576;51.902;-8.462;2023-05-14T10:50:55;17.20;63.70
80274;DHT22;69576;51.902;-8.462;2023-05-14T10:53:36;17.20;63.20
80274;DHT22;69576;51.902;-8.462;2023-05-14T10:56:06;17.20;62.50
80274;DHT22;69576;51.902;-8.462;2023-05-14T10:58:43;17.10;62.80
80274;DHT22;69576;51.902;-8.462;2023-05-14T11:01:11;17.10;62.50
80274;DHT22;69576;51.902;-8.462;2023-05-14T11:03:44;17.10;62.50
80274;DHT22;69576;51.902;-8.462;2023-05-14T11:06:14;17.10;62.70
80274;DHT22;69576;51.902;-8.462;2023-05-14T11:08:40;17.10;62.50
80274;DHT22;69576;51.902;-8.462;2023-05-14T11:11:08;17.10;62.60
80274;DHT22;69576;51.902;-8.462;2023-05-14T11:13:34;17.10;62.60
80274;DHT22;69576;51.902;-8.462;2023-05-14T11:16:05;17.20;62.60
80274;DHT22;69576;51.902;-8.462;2023-05-14T11:18:36;17.20;62.90
80274;DHT22;69576;51.902;-8.462;2023-05-14T11:21:03;17.20;62.80
80274;DHT22;69576;51.902;-8.462;2023-05-14T11:23:31;17.20;62.60
80274;DHT22;69576;51.902;-8.462;2023-05-14T11:25:59;17.20;62.50
80274;DHT22;69576;51.902;-8.462;2023-05-14T11:28:29;17.20;62.50
80274;DHT22;69576;51.902;-8.462;2023-05-14T11:30:58;17.20;62.20
80274;DHT22;69576;51.902;-8.462;2023-05-14T11:33:23;17.20;62.30
80274;DHT22;69576;51.902;-8.462;2023-05-14T11:35:52;17.30;62.30
80274;DHT22;69576;51.902;-8.462;2023-05-14T11:38:20;17.30;62.10
80274;DHT22;69576;51.902;-8.462;2023-05-14T11:40:53;17.40;62.40
80274;DHT22;69576;51.902;-8.462;2023-05-14T11:43:19;17.40;62.30
80274;DHT22;69576;51.902;-8.462;2023-05-14T11:45:52;17.50;62.40
80274;DHT22;69576;51.902;-8.462;2023-05-14T11:48:19;17.50;62.20
80274;DHT22;69576;51.902;-8.462;2023-05-14T11:50:48;17.50;62.20
80274;DHT22;69576;51.902;-8.462;2023-05-14T11:53:24;17.50;62.20
80274;DHT22;69576;51.902;-8.462;2023-05-14T11:55:53;17.50;61.80
80274;DHT22;69576;51.902;-8.462;2023-05-14T11:58:19;17.50;61.70
80274;DHT22;69576;51.902;-8.462;2023-05-14T12:00:48;17.50;61.40
80274;DHT22;69576;51.902;-8.462;2023-05-14T12:03:18;17.50;61.20
80274;DHT22;69576;51.902;-8.462;2023-05-14T12:06:00;17.50;60.80
80274;DHT22;69576;51.902;-8.462;2023-05-14T12:08:28;17.60;60.90
80274;DHT22;69576;51.902;-8.462;2023-05-14T12:10:55;17.50;61.10
80274;DHT22;69576;51.902;-8.462;2023-05-14T12:13:30;17.60;61.30
80274;DHT22;69576;51.902;-8.462;2023-05-14T12:16:00;17.60;61.50
80274;DHT22;69576;51.902;-8.462;2023-05-14T12:18:28;17.80;61.50
80274;DHT22;69576;51.902;-8.462;2023-05-14T12:21:02;17.80;61.60
80274;DHT22;69576;51.902;-8.462;2023-05-14T12:23:31;17.80;61.80
80274;DHT22;69576;51.902;-8.462;2023-05-14T12:26:01;17.80;61.80
80274;DHT22;69576;51.902;-8.462;2023-05-14T12:28:30;18.00;61.90
80274;DHT22;69576;51.902;-8.462;2023-05-14T12:30:57;18.00;61.30
80274;DHT22;69576;51.902;-8.462;2023-05-14T12:33:28;18.00;61.30
80274;DHT22;69576;51.902;-8.462;2023-05-14T12:35:54;18.00;61.40
80274;DHT22;69576;51.902;-8.462;2023-05-14T12:38:26;18.10;61.50
80274;DHT22;69576;51.902;-8.462;2023-05-14T12:40:52;18.10;61.80
80274;DHT22;69576;51.902;-8.462;2023-05-14T12:43:20;18.20;61.80
80274;DHT22;69576;51.902;-8.462;2023-05-14T12:45:46;18.20;61.80
80274;DHT22;69576;51.902;-8.462;2023-05-14T12:48:13;18.30;62.00
80274;DHT22;69576;51.902;-8.462;2023-05-14T12:50:39;18.30;61.90
80274;DHT22;69576;51.902;-8.462;2023-05-14T12:53:07;18.40;62.00
80274;DHT22;69576;51.902;-8.462;2023-05-14T12:55:38;18.40;62.10
80274;DHT22;69576;51.902;-8.462;2023-05-14T12:58:04;18.50;62.10
80274;DHT22;69576;51.902;-8.462;2023-05-14T13:00:32;18.50;62.00
80274;DHT22;69576;51.902;-8.462;2023-05-14T13:02:57;18.60;62.10
80274;DHT22;69576;51.902;-8.462;2023-05-14T13:05:23;18.60;62.00
80274;DHT22;69576;51.902;-8.462;2023-05-14T13:07:52;18.60;61.90
80274;DHT22;69576;51.902;-8.462;2023-05-14T13:10:22;18.70;62.00
80274;DHT22;69576;51.902;-8.462;2023-05-14T13:12:48;18.70;61.90
80274;DHT22;69576;51.902;-8.462;2023-05-14T13:15:15;18.70;61.90
80274;DHT22;69576;51.902;-8.462;2023-05-14T13:17:43;18.70;62.00
80274;DHT22;69576;51.902;-8.462;2023-05-14T13:20:09;18.70;61.80
80274;DHT22;69576;51.902;-8.462;2023-05-14T13:22:37;18.70;61.90
80274;DHT22;69576;51.902;-8.462;2023-05-14T13:25:03;18.70;61.90
80274;DHT22;69576;51.902;-8.462;2023-05-14T13:27:31;18.70;61.90
80274;DHT22;69576;51.902;-8.462;2023-05-14T13:29:58;18.70;61.90
80274;DHT22;69576;51.902;-8.462;2023-05-14T13:32:28;18.70;61.90
80274;DHT22;69576;51.902;-8.462;2023-05-14T13:34:56;18.70;61.90
80274;DHT22;69576;51.902;-8.462;2023-05-14T13:37:25;18.70;61.90
80274;DHT22;69576;51.902;-8.462;2023-05-14T13:39:51;18.70;61.90
80274;DHT22;69576;51.902;-8.462;2023-05-14T13:42:19;18.70;61.90
80274;DHT22;69576;51.902;-8.462;2023-05-14T13:44:48;18.70;61.90
80274;DHT22;69576;51.902;-8.462;2023-05-14T13:47:13;18.70;61.90
80274;DHT22;69576;51.902;-8.462;2023-05-14T13:49:39;18.70;62.00
80274;DHT22;69576;51.902;-8.462;2023-05-14T13:52:05;18.60;61.90
80274;DHT22;69576;51.902;-8.462;2023-05-14T13:54:31;18.60;61.90
80274;DHT22;69576;51.902;-8.462;2023-05-14T13:56:57;18.70;62.00
80274;DHT22;69576;51.902;-8.462;2023-05-14T13:59:22;18.60;62.00
80274;DHT22;69576;51.902;-8.462;2023-05-14T14:01:48;18.60;61.90
80274;DHT22;69576;51.902;-8.462;2023-05-14T14:04:20;18.60;62.00
80274;DHT22;69576;51.902;-8.462;2023-05-14T14:06:46;18.60;61.90
80274;DHT22;69576;51.902;-8.462;2023-05-14T14:09:17;18.70;61.90
80274;DHT22;69576;51.902;-8.462;2023-05-14T14:11:43;18.70;61.90
80274;DHT22;69576;51.902;-8.462;2023-05-14T14:14:08;18.70;61.90
80274;DHT22;69576;51.902;-8.462;2023-05-14T14:16:34;18.70;61.80
80274;DHT22;69576;51.902;-8.462;2023-05-14T14:19:02;18.70;61.80
80274;DHT22;69576;51.902;-8.462;2023-05-14T14:21:32;18.70;62.00
80274;DHT22;69576;51.902;-8.462;2023-05-14T14:23:59;18.70;61.80
80274;DHT22;69576;51.902;-8.462;2023-05-14T14:26:26;18.60;61.90
80274;DHT22;69576;51.902;-8.462;2023-05-14T14:28:52;18.60;62.00
80274;DHT22;69576;51.902;-8.462;2023-05-14T14:31:19;18.60;61.90
80274;DHT22;69576;51.902;-8.462;2023-05-14T14:33:47;18.60;62.10
80274;DHT22;69576;51.902;-8.462;2023-05-14T14:36:13;18.60;62.00
80274;DHT22;69576;51.902;-8.462;2023-05-14T14:38:38;18.60;62.00
80274;DHT22;69576;51.902;-8.462;2023-05-14T14:41:05;18.60;62.00
80274;DHT22;69576;51.902;-8.462;2023-05-14T14:43:35;18.60;62.10
80274;DHT22;69576;51.902;-8.462;2023-05-14T14:46:01;18.60;62.00
80274;DHT22;69576;51.902;-8.462;2023-05-14T14:48:29;18.60;62.00
80274;DHT22;69576;51.902;-8.462;2023-05-14T14:51:06;18.60;62.00
80274;DHT22;69576;51.902;-8.462;2023-05-14T14:53:33;18.60;62.10
80274;DHT22;69576;51.902;-8.462;2023-05-14T14:56:01;18.60;62.10
80274;DHT22;69576;51.902;-8.462;2023-05-14T14:58:30;18.60;62.10
80274;DHT22;69576;51.902;-8.462;2023-05-14T15:00:56;18.50;62.10
80274;DHT22;69576;51.902;-8.462;2023-05-14T15:03:24;18.60;62.10
80274;DHT22;69576;51.902;-8.462;2023-05-14T15:05:51;18.50;62.10
80274;DHT22;69576;51.902;-8.462;2023-05-14T15:08:18;18.50;62.10
80274;DHT22;69576;51.902;-8.462;2023-05-14T15:10:44;18.50;62.10
80274;DHT22;69576;51.902;-8.462;2023-05-14T15:13:11;18.50;62.10
80274;DHT22;69576;51.902;-8.462;2023-05-14T15:15:37;18.50;62.20
80274;DHT22;69576;51.902;-8.462;2023-05-14T15:18:05;18.50;62.20
80274;DHT22;69576;51.902;-8.462;2023-05-14T15:20:33;18.50;62.10
80274;DHT22;69576;51.902;-8.462;2023-05-14T15:22:58;18.50;62.20
80274;DHT22;69576;51.902;-8.462;2023-05-14T15:25:25;18.50;62.30
80274;DHT22;69576;51.902;-8.462;2023-05-14T15:27:51;18.50;62.30
80274;DHT22;69576;51.902;-8.462;2023-05-14T15:30:17;18.50;62.20